createdAt,value
2018-12-25T00:01:23.922Z,9.93
2018-12-25T00:03:53.996Z,10.63
2018-12-25T00:06:27.235Z,8.67
2018-12-25T00:08:57.710Z,9.50
2018-12-25T00:11:27.980Z,10.37
2018-12-25T00:13:58.539Z,9.30
2018-12-25T00:16:29.399Z,8.70
2018-12-25T00:19:06.110Z,10.00
2018-12-25T00:21:31.884Z,7.80
2018-12-25T00:24:02.262Z,9.50
2018-12-25T00:26:32.772Z,8.70
2018-12-25T00:29:03.169Z,8.33
2018-12-25T00:31:33.252Z,8.63
2018-12-25T00:34:03.439Z,11.10
2018-12-25T00:36:34.399Z,8.73
2018-12-25T00:39:07.254Z,9.50
2018-12-25T00:41:38.618Z,11.60
2018-12-25T00:44:08.975Z,9.70
2018-12-25T00:46:39.363Z,9.97
2018-12-25T00:49:14.673Z,10.50
2018-12-25T00:51:41.860Z,10.47
2018-12-25T00:54:12.354Z,11.63
2018-12-25T00:56:42.467Z,9.70
2018-12-25T00:59:13.006Z,9.87
2018-12-25T01:01:44.263Z,8.87
2018-12-25T01:04:14.278Z,9.40
2018-12-25T01:06:44.508Z,8.27
2018-12-25T01:09:14.586Z,9.03
2018-12-25T01:11:45.007Z,8.40
2018-12-25T01:14:15.332Z,8.80
2018-12-25T01:16:46.044Z,7.80
2018-12-25T01:19:23.258Z,8.10
2018-12-25T01:21:48.231Z,8.63
2018-12-25T01:24:18.239Z,9.13
2018-12-25T01:26:47.809Z,7.70
2018-12-25T01:29:17.818Z,7.87
2018-12-25T01:31:47.825Z,8.10
2018-12-25T01:34:18.980Z,7.37
2018-12-25T01:36:49.061Z,8.00
2018-12-25T01:39:19.185Z,6.97
2018-12-25T01:41:49.894Z,9.40
2018-12-25T01:44:20.191Z,6.97
2018-12-25T01:46:50.610Z,6.93
2018-12-25T01:49:20.487Z,7.90
2018-12-25T01:51:50.166Z,7.50
2018-12-25T01:54:20.260Z,8.13
2018-12-25T01:56:50.948Z,7.80
2018-12-25T01:59:20.562Z,9.30
2018-12-25T02:01:50.505Z,9.17
2018-12-25T02:04:21.295Z,7.47
2018-12-25T02:06:50.786Z,7.23
2018-12-25T02:09:20.878Z,7.17
2018-12-25T02:11:50.929Z,6.73
2018-12-25T02:14:21.241Z,8.60
2018-12-25T02:16:50.775Z,8.07
2018-12-25T02:19:21.259Z,8.50
2018-12-25T02:21:51.337Z,7.23
2018-12-25T02:24:21.347Z,8.83
2018-12-25T02:26:52.099Z,7.93
2018-12-25T02:29:22.242Z,8.47
2018-12-25T02:31:55.619Z,9.33
2018-12-25T02:34:25.735Z,8.60
2018-12-25T02:36:55.919Z,9.93
2018-12-25T02:39:25.865Z,9.10
2018-12-25T02:41:55.971Z,8.83
2018-12-25T02:44:26.371Z,9.47
2018-12-25T02:46:56.802Z,8.83
2018-12-25T02:49:27.153Z,9.50
2018-12-25T02:51:59.135Z,9.97
2018-12-25T02:54:29.194Z,9.33
2018-12-25T02:56:59.563Z,8.47
2018-12-25T02:59:29.628Z,9.33
2018-12-25T03:02:02.187Z,8.83
2018-12-25T03:04:32.547Z,10.77
2018-12-25T03:07:02.723Z,9.40
2018-12-25T03:09:33.422Z,11.20
2018-12-25T03:12:03.688Z,10.67
2018-12-25T03:14:34.344Z,9.77
2018-12-25T03:17:04.561Z,10.13
2018-12-25T03:19:34.138Z,11.10
2018-12-25T03:22:04.218Z,11.63
2018-12-25T03:24:34.429Z,9.37
2018-12-25T03:27:05.211Z,13.00
2018-12-25T03:29:35.307Z,9.20
2018-12-25T03:32:06.442Z,10.83
2018-12-25T03:34:36.491Z,11.43
2018-12-25T03:37:06.962Z,10.70
2018-12-25T03:39:37.086Z,11.07
2018-12-25T03:42:07.554Z,11.37
2018-12-25T03:44:37.598Z,11.30
2018-12-25T03:47:08.478Z,9.97
2018-12-25T03:49:43.390Z,11.00
2018-12-25T03:52:13.466Z,10.03
2018-12-25T03:54:43.839Z,10.23
2018-12-25T03:57:15.369Z,7.83
2018-12-25T03:59:45.443Z,11.43
2018-12-25T04:02:15.574Z,10.40
2018-12-25T04:04:46.302Z,12.73
2018-12-25T04:07:16.308Z,12.67
2018-12-25T04:09:46.343Z,11.67
2018-12-25T04:12:16.362Z,11.63
2018-12-25T04:14:46.682Z,12.90
2018-12-25T04:17:17.183Z,12.27
2018-12-25T04:19:51.651Z,13.33
2018-12-25T04:22:21.732Z,13.97
2018-12-25T04:24:52.146Z,11.43
2018-12-25T04:27:22.163Z,11.63
2018-12-25T04:29:52.485Z,13.33
2018-12-25T04:32:22.971Z,16.63
2018-12-25T04:34:52.303Z,16.47
2018-12-25T04:37:23.205Z,15.77
2018-12-25T04:39:53.311Z,16.93
2018-12-25T04:42:23.403Z,17.47
2018-12-25T04:44:52.898Z,16.23
2018-12-25T04:47:23.134Z,18.73
2018-12-25T04:49:54.429Z,16.30
2018-12-25T04:52:24.658Z,19.67
2018-12-25T04:54:54.668Z,19.10
2018-12-25T04:57:24.582Z,19.07
2018-12-25T04:59:54.979Z,17.00
2018-12-25T05:02:25.123Z,18.70
2018-12-25T05:04:55.519Z,20.60
2018-12-25T05:07:25.578Z,18.03
2018-12-25T05:09:56.035Z,17.50
2018-12-25T05:12:26.183Z,17.83
2018-12-25T05:14:56.599Z,17.77
2018-12-25T05:17:26.852Z,15.27
2018-12-25T05:19:57.322Z,16.07
2018-12-25T05:22:27.518Z,17.87
2018-12-25T05:24:58.162Z,15.90
2018-12-25T05:27:28.285Z,16.27
2018-12-25T05:29:58.369Z,17.50
2018-12-25T05:32:28.535Z,15.83
2018-12-25T05:34:58.498Z,16.97
2018-12-25T05:37:29.065Z,15.60
2018-12-25T05:39:59.198Z,17.30
2018-12-25T05:42:29.635Z,15.93
2018-12-25T05:44:59.743Z,17.53
2018-12-25T05:47:29.788Z,17.13
2018-12-25T05:49:59.894Z,15.77
2018-12-25T05:52:30.092Z,16.50
2018-12-25T05:55:02.151Z,17.50
2018-12-25T05:57:31.694Z,16.13
2018-12-25T06:00:02.103Z,16.20
2018-12-25T06:02:32.252Z,16.00
2018-12-25T06:05:02.655Z,15.23
2018-12-25T06:07:32.982Z,13.87
2018-12-25T06:10:04.535Z,18.73
2018-12-25T06:12:34.373Z,14.90
2018-12-25T06:15:14.071Z,14.63
2018-12-25T06:17:46.243Z,16.17
2018-12-25T06:20:17.898Z,17.03
2018-12-25T06:22:48.050Z,19.13
2018-12-25T06:25:18.425Z,17.83
2018-12-25T06:27:48.546Z,15.07
2018-12-25T06:30:20.127Z,16.07
2018-12-25T06:32:51.495Z,16.43
2018-12-25T06:35:21.901Z,19.23
2018-12-25T06:37:52.475Z,17.03
2018-12-25T06:40:22.771Z,17.50
2018-12-25T06:42:53.342Z,18.00
2018-12-25T06:45:23.677Z,18.20
2018-12-25T06:47:53.197Z,16.83
2018-12-25T06:50:23.817Z,15.80
2018-12-25T06:52:54.247Z,14.50
2018-12-25T06:55:24.442Z,16.00
2018-12-25T06:57:54.791Z,14.60
2018-12-25T07:00:25.161Z,14.87
2018-12-25T07:02:56.573Z,15.70
2018-12-25T07:05:26.877Z,13.60
2018-12-25T07:07:56.981Z,13.70
2018-12-25T07:10:26.978Z,14.30
2018-12-25T07:12:57.470Z,14.37
2018-12-25T07:15:32.961Z,13.77
2018-12-25T07:18:07.418Z,12.77
2018-12-25T07:20:37.723Z,12.97
2018-12-25T07:23:08.201Z,13.87
2018-12-25T07:25:38.535Z,13.43
2018-12-25T07:28:08.547Z,14.00
2018-12-25T07:30:38.963Z,13.17
2018-12-25T07:33:09.703Z,13.23
2018-12-25T07:35:39.780Z,12.83
2018-12-25T07:38:10.860Z,14.77
2018-12-25T07:40:41.147Z,15.93
2018-12-25T07:43:11.197Z,14.93
2018-12-25T07:45:41.820Z,14.20
2018-12-25T07:48:12.350Z,15.10
2018-12-25T07:50:42.527Z,13.60
2018-12-25T07:53:12.703Z,14.93
2018-12-25T07:55:43.124Z,15.90
2018-12-25T07:58:13.542Z,15.97
2018-12-25T08:00:43.062Z,14.83
2018-12-25T08:03:14.408Z,14.47
2018-12-25T08:05:44.527Z,14.70
2018-12-25T08:08:14.587Z,13.93
2018-12-25T08:10:45.049Z,15.57
2018-12-25T08:13:15.115Z,13.37
2018-12-25T08:15:45.391Z,13.50
2018-12-25T08:18:15.431Z,13.17
2018-12-25T08:20:45.755Z,12.40
2018-12-25T08:23:15.771Z,15.10
2018-12-25T08:25:46.215Z,13.63
2018-12-25T08:28:16.804Z,14.50
2018-12-25T08:30:46.962Z,14.43
2018-12-25T08:33:16.994Z,15.73
2018-12-25T08:35:47.317Z,13.37
2018-12-25T08:38:17.829Z,14.53
2018-12-25T08:40:48.636Z,13.50
2018-12-25T08:43:18.957Z,15.63
2018-12-25T08:46:02.286Z,14.10
2018-12-25T08:48:32.590Z,13.80
2018-12-25T08:51:02.805Z,14.93
2018-12-25T08:53:34.547Z,13.10
2018-12-25T08:56:04.513Z,12.73
2018-12-25T08:58:34.822Z,13.67
2018-12-25T09:01:05.185Z,14.30
2018-12-25T09:03:36.635Z,12.70
2018-12-25T09:06:06.662Z,12.93
2018-12-25T09:08:37.164Z,15.97
2018-12-25T09:11:06.682Z,13.20
2018-12-25T09:13:36.694Z,15.23
2018-12-25T09:16:07.404Z,14.63
2018-12-25T09:18:38.442Z,12.97
2018-12-25T09:21:08.806Z,12.47
2018-12-25T09:23:38.833Z,11.50
2018-12-25T09:26:08.916Z,13.93
2018-12-25T09:28:38.945Z,13.63
2018-12-25T09:31:08.934Z,17.87
2018-12-25T09:33:39.418Z,13.13
2018-12-25T09:36:09.483Z,12.13
2018-12-25T09:38:40.059Z,12.57
2018-12-25T09:41:10.228Z,12.07
2018-12-25T09:43:40.889Z,12.50
2018-12-25T09:46:11.007Z,13.33
2018-12-25T09:48:42.010Z,15.43
2018-12-25T09:51:12.254Z,14.43
2018-12-25T09:53:42.685Z,14.83
2018-12-25T09:56:13.155Z,11.67
2018-12-25T09:58:44.670Z,12.53
2018-12-25T10:01:14.830Z,10.53
2018-12-25T10:03:44.869Z,14.07
2018-12-25T10:06:14.992Z,11.80
2018-12-25T10:08:45.698Z,12.27
2018-12-25T10:11:16.430Z,10.73
2018-12-25T10:13:47.523Z,11.10
2018-12-25T10:16:18.052Z,10.60
2018-12-25T10:18:48.451Z,10.80
2018-12-25T10:21:18.135Z,10.53
2018-12-25T10:23:49.542Z,8.67
2018-12-25T10:26:20.276Z,8.60
2018-12-25T10:28:50.361Z,10.67
2018-12-25T10:31:20.871Z,9.83
2018-12-25T10:33:51.494Z,10.37
2018-12-25T10:36:21.152Z,10.50
2018-12-25T10:38:53.297Z,11.20
2018-12-25T10:41:23.822Z,9.63
2018-12-25T10:43:53.810Z,9.40
2018-12-25T10:46:24.234Z,10.67
2018-12-25T10:48:54.933Z,9.63
2018-12-25T10:51:25.011Z,9.67
2018-12-25T10:53:55.342Z,11.13
2018-12-25T10:56:25.882Z,10.83
2018-12-25T10:58:56.082Z,12.80
2018-12-25T11:01:29.519Z,8.97
2018-12-25T11:03:59.098Z,11.57
2018-12-25T11:06:29.148Z,10.60
2018-12-25T11:08:59.189Z,11.10
2018-12-25T11:11:29.411Z,10.13
2018-12-25T11:13:58.928Z,10.00
2018-12-25T11:16:28.967Z,11.23
2018-12-25T11:18:59.146Z,10.13
2018-12-25T11:21:29.043Z,9.80
2018-12-25T11:23:58.468Z,10.37
2018-12-25T11:26:28.219Z,9.67
2018-12-25T11:28:58.582Z,10.37
2018-12-25T11:31:29.358Z,8.63
2018-12-25T11:33:59.555Z,14.13
2018-12-25T11:36:29.382Z,14.47
2018-12-25T11:38:59.774Z,15.20
2018-12-25T11:41:29.966Z,14.70
2018-12-25T11:44:00.419Z,14.70
2018-12-25T11:46:30.985Z,13.90
2018-12-25T11:49:01.425Z,14.03
2018-12-25T11:51:31.673Z,17.90
2018-12-25T11:54:02.686Z,15.87
2018-12-25T11:56:32.219Z,16.23
2018-12-25T11:59:04.838Z,16.53
2018-12-25T12:01:34.479Z,15.40
2018-12-25T12:04:04.771Z,15.27
2018-12-25T12:06:35.219Z,14.90
2018-12-25T12:09:07.578Z,16.43
2018-12-25T12:11:38.093Z,17.27
2018-12-25T12:14:08.277Z,16.50
2018-12-25T12:16:39.475Z,16.17
2018-12-25T12:19:09.532Z,15.33
2018-12-25T12:21:41.062Z,14.27
2018-12-25T12:24:10.878Z,15.33
2018-12-25T12:26:41.034Z,14.83
2018-12-25T12:29:11.502Z,13.00
2018-12-25T12:31:41.720Z,13.63
2018-12-25T12:34:12.152Z,13.60
2018-12-25T12:36:42.914Z,14.47
2018-12-25T12:39:15.967Z,14.90
2018-12-25T12:41:45.501Z,13.93
2018-12-25T12:44:15.909Z,12.33
2018-12-25T12:46:45.443Z,13.50
2018-12-25T12:49:15.979Z,13.57
2018-12-25T12:51:46.190Z,12.97
2018-12-25T12:54:16.874Z,15.50
2018-12-25T12:56:47.315Z,14.83
2018-12-25T12:59:19.766Z,14.17
2018-12-25T13:01:50.362Z,14.80
2018-12-25T13:04:20.800Z,14.03
2018-12-25T13:06:50.490Z,14.03
2018-12-25T13:09:23.007Z,14.67
2018-12-25T13:11:53.763Z,12.20
2018-12-25T13:14:24.086Z,13.53
2018-12-25T13:16:54.187Z,15.70
2018-12-25T13:19:24.431Z,12.30
2018-12-25T13:21:54.429Z,15.07
2018-12-25T13:24:24.665Z,14.67
2018-12-25T13:26:55.124Z,12.67
2018-12-25T13:29:25.178Z,14.90
2018-12-25T13:31:55.337Z,16.20
2018-12-25T13:34:25.634Z,14.43
2018-12-25T13:36:55.858Z,14.77
2018-12-25T13:39:26.025Z,15.87
2018-12-25T13:41:56.106Z,15.70
2018-12-25T13:44:26.230Z,13.77
2018-12-25T13:46:56.886Z,16.07
2018-12-25T13:49:27.404Z,13.87
2018-12-25T13:51:57.534Z,15.23
2018-12-25T13:54:27.951Z,15.33
2018-12-25T13:56:58.351Z,16.20
2018-12-25T13:59:28.613Z,14.60
2018-12-25T14:01:59.329Z,14.30
2018-12-25T14:04:29.539Z,17.70
2018-12-25T14:07:00.092Z,16.13
2018-12-25T14:09:30.610Z,15.80
2018-12-25T14:12:00.199Z,17.90
2018-12-25T14:14:50.096Z,17.97
2018-12-25T14:17:34.413Z,17.40
2018-12-25T14:20:04.923Z,17.87
2018-12-25T14:22:35.541Z,17.03
2018-12-25T14:25:06.410Z,14.37
2018-12-25T14:27:35.992Z,17.50
2018-12-25T14:30:07.000Z,19.70
2018-12-25T14:32:37.803Z,20.23
2018-12-25T14:35:07.940Z,20.00
2018-12-25T14:37:37.860Z,19.83
2018-12-25T14:40:07.927Z,19.43
2018-12-25T14:42:38.580Z,20.03
2018-12-25T14:45:08.954Z,19.30
2018-12-25T14:47:38.556Z,22.37
2018-12-25T14:50:08.855Z,19.03
2018-12-25T14:52:39.071Z,20.33
2018-12-25T14:55:09.730Z,21.67
2018-12-25T14:57:39.234Z,19.17
2018-12-25T15:00:11.160Z,21.20
2018-12-25T15:02:41.350Z,20.80
2018-12-25T15:05:11.463Z,20.67
2018-12-25T15:07:41.117Z,20.43
2018-12-25T15:10:11.251Z,21.60
2018-12-25T15:12:41.439Z,21.50
2018-12-25T15:15:12.022Z,20.20
2018-12-25T15:17:42.193Z,21.90
2018-12-25T15:20:12.348Z,20.20
2018-12-25T15:22:43.443Z,21.30
2018-12-25T15:25:13.207Z,19.63
2018-12-25T15:27:43.299Z,20.73
2018-12-25T15:30:13.826Z,20.80
2018-12-25T15:32:43.969Z,20.63
2018-12-25T15:35:14.360Z,21.93
2018-12-25T15:37:44.566Z,19.97
2018-12-25T15:40:15.076Z,21.13
2018-12-25T15:42:45.451Z,21.10
2018-12-25T15:45:16.155Z,20.97
2018-12-25T15:47:46.461Z,22.50
2018-12-25T15:50:16.882Z,20.20
2018-12-25T15:52:46.526Z,21.57
2018-12-25T15:55:16.987Z,21.73
2018-12-25T15:57:47.375Z,20.10
2018-12-25T16:00:18.623Z,20.47
2018-12-25T16:02:49.864Z,21.33
2018-12-25T16:05:20.298Z,21.13
2018-12-25T16:07:50.375Z,20.37
2018-12-25T16:10:20.928Z,23.73
2018-12-25T16:12:51.890Z,20.73
2018-12-25T16:15:22.239Z,22.03
2018-12-25T16:17:52.114Z,27.27
2018-12-25T16:20:21.615Z,22.23
2018-12-25T16:22:52.594Z,21.67
2018-12-25T16:25:22.727Z,23.97
2018-12-25T16:27:53.182Z,23.37
2018-12-25T16:30:22.966Z,22.63
2018-12-25T16:32:52.990Z,23.17
2018-12-25T16:35:23.371Z,22.00
2018-12-25T16:37:55.427Z,23.13
2018-12-25T16:40:25.011Z,22.43
2018-12-25T16:42:55.469Z,22.57
2018-12-25T16:45:25.592Z,25.77
2018-12-25T16:47:56.151Z,23.37
2018-12-25T16:50:26.780Z,24.03
2018-12-25T16:52:56.830Z,22.27
2018-12-25T16:55:26.435Z,22.80
2018-12-25T16:57:56.422Z,23.67
2018-12-25T17:00:26.588Z,21.67
2018-12-25T17:02:56.676Z,21.83
2018-12-25T17:05:26.862Z,21.73
2018-12-25T17:07:57.483Z,21.17
2018-12-25T17:10:27.924Z,20.53
2018-12-25T17:12:58.016Z,18.80
2018-12-25T17:15:28.081Z,19.30
2018-12-25T17:17:59.064Z,18.83
2018-12-25T17:20:29.208Z,18.70
2018-12-25T17:22:58.765Z,18.87
2018-12-25T17:25:29.615Z,18.53
2018-12-25T17:27:59.687Z,20.30
2018-12-25T17:30:29.772Z,17.17
2018-12-25T17:32:59.846Z,17.47
2018-12-25T17:35:30.250Z,19.20
2018-12-25T17:38:00.386Z,17.50
2018-12-25T17:40:30.174Z,17.87
2018-12-25T17:43:01.213Z,17.70
2018-12-25T17:45:31.397Z,19.50
2018-12-25T17:48:01.653Z,19.50
2018-12-25T17:50:32.696Z,17.53
2018-12-25T17:53:02.833Z,15.83
2018-12-25T17:55:33.230Z,17.87
2018-12-25T17:58:02.815Z,18.37
2018-12-25T18:00:35.511Z,17.57
2018-12-25T18:03:05.770Z,18.60
2018-12-25T18:05:36.474Z,18.93
2018-12-25T18:08:06.536Z,17.50
2018-12-25T18:10:37.106Z,18.97
2018-12-25T18:13:07.265Z,19.20
2018-12-25T18:15:37.412Z,18.30
2018-12-25T18:18:07.811Z,18.83
2018-12-25T18:20:37.982Z,16.27
2018-12-25T18:23:08.171Z,16.97
2018-12-25T18:25:38.013Z,17.77
2018-12-25T18:28:09.014Z,14.97
2018-12-25T18:30:39.514Z,15.43
2018-12-25T18:33:09.736Z,14.50
2018-12-25T18:35:39.930Z,14.57
2018-12-25T18:38:11.520Z,13.33
2018-12-25T18:40:42.260Z,12.40
2018-12-25T18:43:12.413Z,14.03
2018-12-25T18:45:41.962Z,14.33
2018-12-25T18:48:12.043Z,15.07
2018-12-25T18:50:41.590Z,14.23
2018-12-25T18:53:11.658Z,13.97
2018-12-25T18:55:42.044Z,15.30
2018-12-25T18:58:12.148Z,13.77
2018-12-25T19:00:41.631Z,14.27
2018-12-25T19:03:11.978Z,14.70
2018-12-25T19:05:42.358Z,12.33
2018-12-25T19:08:12.478Z,13.53
2018-12-25T19:10:42.858Z,13.30
2018-12-25T19:13:13.027Z,14.20
2018-12-25T19:15:43.846Z,13.83
2018-12-25T19:18:14.428Z,14.50
2018-12-25T19:20:44.693Z,15.77
2018-12-25T19:23:14.883Z,16.43
2018-12-25T19:25:45.105Z,14.27
2018-12-25T19:28:14.741Z,14.63
2018-12-25T19:30:44.853Z,13.97
2018-12-25T19:33:14.932Z,13.50
2018-12-25T19:35:45.409Z,14.03
2018-12-25T19:38:15.527Z,14.80
2018-12-25T19:40:45.872Z,15.17
2018-12-25T19:43:15.919Z,14.03
2018-12-25T19:45:46.402Z,14.73
2018-12-25T19:48:16.524Z,16.30
2018-12-25T19:50:47.333Z,13.70
2018-12-25T19:53:17.423Z,15.30
2018-12-25T19:55:47.609Z,13.00
2018-12-25T19:58:17.790Z,13.30
2018-12-25T20:00:47.981Z,14.50
2018-12-25T20:03:21.848Z,14.13
2018-12-25T20:06:22.370Z,13.83
2018-12-25T20:09:24.863Z,13.37
2018-12-25T20:12:30.052Z,13.73
2018-12-25T20:15:19.440Z,12.93
2018-12-25T20:18:23.863Z,14.07
2018-12-25T20:21:32.141Z,13.07
2018-12-25T20:24:40.050Z,14.93
2018-12-25T20:27:31.770Z,14.87
2018-12-25T20:30:37.998Z,15.97
2018-12-25T20:33:39.718Z,14.67
2018-12-25T20:36:51.101Z,16.77
2018-12-25T20:39:48.327Z,14.93
2018-12-25T20:42:34.216Z,13.33
2018-12-25T20:45:43.828Z,13.00
2018-12-25T20:48:42.311Z,13.30
2018-12-25T20:52:05.730Z,12.20
2018-12-25T20:54:42.298Z,14.40
2018-12-25T20:57:45.626Z,13.00
2018-12-25T21:00:55.834Z,14.70
2018-12-25T21:03:46.414Z,12.83
2018-12-25T21:10:30.113Z,13.93
2018-12-25T21:13:36.154Z,15.03
2018-12-25T21:16:25.555Z,13.13
2018-12-25T21:19:54.974Z,15.30
2018-12-25T21:23:07.238Z,13.07
2018-12-25T21:26:13.588Z,14.37
2018-12-25T21:28:44.019Z,14.23
2018-12-25T21:31:14.249Z,14.63
2018-12-25T21:33:44.035Z,13.40
2018-12-25T21:36:13.790Z,14.10
2018-12-25T21:38:44.057Z,14.50
2018-12-25T21:41:15.248Z,15.00
2018-12-25T21:43:45.682Z,14.17
2018-12-25T21:46:16.107Z,13.93
2018-12-25T21:48:46.472Z,13.83
2018-12-25T21:51:17.788Z,15.77
2018-12-25T21:53:48.376Z,15.20
2018-12-25T21:56:18.658Z,15.87
2018-12-25T21:58:49.044Z,17.80
2018-12-25T22:01:19.545Z,15.67
2018-12-25T22:03:49.739Z,16.20
2018-12-25T22:06:20.266Z,15.40
2018-12-25T22:08:50.665Z,14.60
2018-12-25T22:11:20.266Z,16.67
2018-12-25T22:13:50.677Z,15.93
2018-12-25T22:16:21.244Z,15.33
2018-12-25T22:18:52.372Z,15.90
2018-12-25T22:21:22.771Z,15.13
2018-12-25T22:23:53.200Z,13.93
2018-12-25T22:26:23.411Z,17.50
2018-12-25T22:28:53.724Z,18.17
2018-12-25T22:31:23.795Z,19.80
2018-12-25T22:33:53.842Z,19.70
2018-12-25T22:36:23.889Z,17.13
2018-12-25T22:38:55.068Z,16.80
2018-12-25T22:41:25.480Z,17.47
2018-12-25T22:43:54.922Z,18.50
2018-12-25T22:46:25.317Z,17.93
2018-12-25T22:48:55.437Z,19.07
2018-12-25T22:51:25.969Z,19.10
2018-12-25T22:54:10.838Z,17.57
2018-12-25T22:56:40.437Z,20.83
2018-12-25T22:59:10.262Z,19.50
2018-12-25T23:01:40.610Z,18.43
2018-12-25T23:04:10.995Z,17.97
2018-12-25T23:06:42.239Z,19.20
2018-12-25T23:09:12.554Z,19.53
2018-12-25T23:11:43.595Z,20.97
2018-12-25T23:14:13.414Z,21.13
2018-12-25T23:16:43.466Z,19.30
2018-12-25T23:19:14.055Z,20.40
2018-12-25T23:21:44.447Z,21.57
2018-12-25T23:24:14.524Z,22.73
2018-12-25T23:26:45.112Z,18.23
2018-12-25T23:29:14.631Z,20.53
2018-12-25T23:31:44.064Z,20.27
2018-12-25T23:34:14.378Z,19.60
2018-12-25T23:36:44.002Z,21.80
2018-12-25T23:39:13.807Z,23.53
2018-12-25T23:41:43.996Z,20.70
2018-12-25T23:44:14.377Z,20.43
2018-12-25T23:46:44.546Z,20.67
2018-12-25T23:49:14.668Z,23.13
2018-12-25T23:51:44.756Z,21.27
2018-12-25T23:54:14.861Z,24.03
2018-12-25T23:56:45.011Z,22.13
2018-12-25T23:59:15.175Z,23.50
